Aérodrome :
LOGIN :

S'inscrire | Disclaimer

   EN    FR    IT 

 










Légende :    VFR   VFR Marginal   IFR   IFR Intensif   IFR Très Intensif
Visi : 
Plafond : 
>= 8 km
>= 3000ft
5 à 8 km
1000 à 3000 ft
1500m à 5 km
500 à 1000 ft
800 à 1500m
200 à 500 ft
< 800m
< 200 ft
Symboles :   Orages  Brouillard  Fortes neiges  Fortes précipitations  Vent > 20 kt
SIGMETs :   Divers  Orages  Givrage  Turbulence  Onde Orograph.  Cendres Volcan.







- Altitude de l'aérodrome : 2945 ft
- Code IATA : RGS


LEBG - Burgos

DERNIER METAR :
  • 211700Z VRB02KT 9999 SCT050 18/09 Q1018

METARs EXPIRÉS :
  • 211630Z 35004KT 320V040 9999 -RA SCT040 SCT055 18/09 Q1018
  • 211600Z 33004KT 9999 -RA SCT045 19/09 Q1018
  • 211530Z 28004KT 240V340 9999 -RA SCT045 19/08 Q1018
  • 211500Z 33005KT 260V020 9999 FEW042 19/07 Q1018
  • 211430Z 29004KT 220V350 9999 FEW042 19/08 Q1018

TAF TAF LEBG
Valide du 21 à 15h jusqu'au 22 à 00h UTC


211400Z 2115/2124 VRB05KT 9999 SCT035
PROB30
TEMPO 2115/2118 SHRA SCT040TCU
Pas de NOTAMs connus pour ce terrain.
1 SIGMET publié pour la FIR Madrid (LECM) :
 
Turbulence forte
LECM SIGMET 1 VALID 211529/211730 LEVA
LECM MADRID UIR SEV TURB OBS AT 1529Z WI N41 W00323 - N4151 W00324 - N4155 W00205 - N4057 W00213 - N41 W00323 FL330/370 MOV E 20KT NC=



MET'MAP, la Météo Aéronautique d'un coup d'oeil ! - Copyright ORBIFLY Décembre 2007 - Disclaimer

ORBIFLY MET'MAP TEAM :

Programmation & Développement : Alexandra Zaïnal
Conception & Développement : Baudouin d'Aumeries
Co-Programmation & Développement : Marc-Olivier Méhu
Soutien technique & logistique : Manuel Goepfert

Contact : metmap@orbifly.com




SOURCES & CREDITS :

   NOAA